createdAt,value
2023-04-11T00:00:32.419Z,3.10
2023-04-11T00:01:32.519Z,4.70
2023-04-11T00:02:32.484Z,3.30
2023-04-11T00:03:32.457Z,4.40
2023-04-11T00:04:32.422Z,4.10
2023-04-11T00:05:32.377Z,4.40
2023-04-11T00:06:32.357Z,3.90
2023-04-11T00:07:32.326Z,4.00
2023-04-11T00:08:32.294Z,4.50
2023-04-11T00:09:32.278Z,5.10
2023-04-11T00:10:32.322Z,4.40
2023-04-11T00:11:32.244Z,5.00
2023-04-11T00:12:32.271Z,5.20
2023-04-11T00:13:32.227Z,5.70
2023-04-11T00:14:32.260Z,5.80
2023-04-11T00:15:32.224Z,7.10
2023-04-11T00:16:32.246Z,4.60
2023-04-11T00:17:32.222Z,4.50
2023-04-11T00:18:32.176Z,5.10
2023-04-11T00:19:32.194Z,4.50
2023-04-11T00:20:32.171Z,4.90
2023-04-11T00:21:32.206Z,3.70
2023-04-11T00:22:32.194Z,5.50
2023-04-11T00:23:32.119Z,4.70
2023-04-11T00:24:32.158Z,5.50
2023-04-11T00:25:32.124Z,4.00
2023-04-11T00:26:32.168Z,5.40
2023-04-11T00:27:32.101Z,6.10
2023-04-11T00:28:32.083Z,7.00
2023-04-11T00:29:32.097Z,4.80
2023-04-11T00:30:32.071Z,5.40
2023-04-11T00:31:32.093Z,5.30
2023-04-11T00:32:32.101Z,6.20
2023-04-11T00:33:32.055Z,8.50
2023-04-11T00:34:32.006Z,7.20
2023-04-11T00:35:32.097Z,7.80
2023-04-11T00:36:32.108Z,7.00
2023-04-11T00:37:31.984Z,5.60
2023-04-11T00:38:31.951Z,6.20
2023-04-11T00:39:32.601Z,8.70
2023-04-11T00:40:31.928Z,5.80
2023-04-11T00:41:32.641Z,6.10
2023-04-11T00:42:31.890Z,7.10
2023-04-11T00:43:31.885Z,6.00
2023-04-11T00:44:31.950Z,8.20
2023-04-11T00:45:31.932Z,5.20
2023-04-11T00:46:31.883Z,9.50
2023-04-11T00:47:31.957Z,7.10
2023-04-11T00:48:31.829Z,4.80
2023-04-11T00:49:31.853Z,6.40
2023-04-11T00:50:32.603Z,8.50
2023-04-11T00:51:31.883Z,5.00
2023-04-11T00:52:31.776Z,8.30
2023-04-11T00:53:31.900Z,7.80
2023-04-11T00:54:31.866Z,6.60
2023-04-11T00:55:32.721Z,9.00
2023-04-11T00:56:32.341Z,7.80
2023-04-11T00:57:31.944Z,10.40
2023-04-11T00:58:31.713Z,7.40
2023-04-11T00:59:31.774Z,9.80
2023-04-11T01:00:31.690Z,8.00
2023-04-11T01:01:31.717Z,9.00
2023-04-11T01:02:31.731Z,7.70
2023-04-11T01:03:31.959Z,9.80
2023-04-11T01:04:31.637Z,11.20
2023-04-11T01:05:31.693Z,13.40
2023-04-11T01:06:31.627Z,11.20
2023-04-11T01:07:31.612Z,11.10
2023-04-11T01:08:31.588Z,8.10
2023-04-11T01:09:31.588Z,10.50
2023-04-11T01:10:31.570Z,14.00
2023-04-11T01:11:31.589Z,11.80
2023-04-11T01:12:31.548Z,11.70
2023-04-11T01:13:31.542Z,12.40
2023-04-11T01:14:31.532Z,12.30
2023-04-11T01:15:31.547Z,12.10
2023-04-11T01:16:31.526Z,12.90
2023-04-11T01:17:31.552Z,14.30
2023-04-11T01:18:31.477Z,12.50
2023-04-11T01:19:31.473Z,13.40
2023-04-11T01:20:31.458Z,10.60
2023-04-11T01:21:31.471Z,13.60
2023-04-11T01:22:31.448Z,13.10
2023-04-11T01:23:31.586Z,11.20
2023-04-11T01:24:31.413Z,11.80
2023-04-11T01:25:31.430Z,11.00
2023-04-11T01:26:31.411Z,14.60
2023-04-11T01:27:31.386Z,10.70
2023-04-11T01:28:31.376Z,15.10
2023-04-11T01:29:31.357Z,11.50
2023-04-11T01:30:31.374Z,10.00
2023-04-11T01:31:31.359Z,12.20
2023-04-11T01:32:31.365Z,12.20
2023-04-11T01:33:31.364Z,16.20
2023-04-11T01:34:31.323Z,12.60
2023-04-11T01:35:31.346Z,10.60
2023-04-11T01:36:31.320Z,12.90
2023-04-11T01:37:31.273Z,14.40
2023-04-11T01:38:31.255Z,12.20
2023-04-11T01:39:31.256Z,14.80
2023-04-11T01:40:31.232Z,12.60
2023-04-11T01:41:31.226Z,10.50
2023-04-11T01:42:31.238Z,12.10
2023-04-11T01:43:31.208Z,10.90
2023-04-11T01:44:31.192Z,12.80
2023-04-11T01:45:31.176Z,13.30
2023-04-11T01:46:31.227Z,13.80
2023-04-11T01:47:31.210Z,9.20
2023-04-11T01:48:31.243Z,11.70
2023-04-11T01:49:31.145Z,13.40
2023-04-11T01:50:31.121Z,14.50
2023-04-11T01:51:31.119Z,15.70
2023-04-11T01:52:31.093Z,12.90
2023-04-11T01:53:31.112Z,11.50
2023-04-11T01:54:31.077Z,14.10
2023-04-11T01:55:31.064Z,15.10
2023-04-11T01:56:31.081Z,13.70
2023-04-11T01:57:31.071Z,13.20
2023-04-11T01:58:31.030Z,12.20
2023-04-11T01:59:31.041Z,14.90
2023-04-11T02:00:31.005Z,15.90
2023-04-11T02:01:31.043Z,15.80
2023-04-11T02:02:31.045Z,14.30
2023-04-11T02:03:30.998Z,16.40
2023-04-11T02:04:30.980Z,15.80
2023-04-11T02:05:30.952Z,14.80
2023-04-11T02:06:30.940Z,14.70
2023-04-11T02:07:30.934Z,13.40
2023-04-11T02:08:30.933Z,17.80
2023-04-11T02:09:30.904Z,15.60
2023-04-11T02:10:30.919Z,18.40
2023-04-11T02:11:30.901Z,16.10
2023-04-11T02:12:30.875Z,17.40
2023-04-11T02:13:30.881Z,15.80
2023-04-11T02:14:30.840Z,13.00
2023-04-11T02:15:30.939Z,12.70
2023-04-11T02:16:30.842Z,17.00
2023-04-11T02:17:30.855Z,17.50
2023-04-11T02:18:30.799Z,12.80
2023-04-11T02:19:30.800Z,12.50
2023-04-11T02:20:30.776Z,15.00
2023-04-11T02:21:30.805Z,12.30
2023-04-11T02:22:30.761Z,14.40
2023-04-11T02:23:30.755Z,15.50
2023-04-11T02:24:30.738Z,13.70
2023-04-11T02:25:30.743Z,17.10
2023-04-11T02:26:30.704Z,14.00
2023-04-11T02:27:30.731Z,15.60
2023-04-11T02:28:30.689Z,13.00
2023-04-11T02:29:30.678Z,13.60
2023-04-11T02:30:30.658Z,14.80
2023-04-11T02:31:30.717Z,17.30
2023-04-11T02:32:30.684Z,16.40
2023-04-11T02:33:30.633Z,13.90
2023-04-11T02:34:30.626Z,15.80
2023-04-11T02:35:30.641Z,20.30
2023-04-11T02:36:30.601Z,15.50
2023-04-11T02:37:30.615Z,11.50
2023-04-11T02:38:30.598Z,14.50
2023-04-11T02:39:30.563Z,16.60
2023-04-11T02:40:30.552Z,14.30
2023-04-11T02:41:30.541Z,20.50
2023-04-11T02:42:30.533Z,19.60
2023-04-11T02:43:30.524Z,18.50
2023-04-11T02:44:30.524Z,17.00
2023-04-11T02:45:30.496Z,20.40
2023-04-11T02:46:30.493Z,24.40
2023-04-11T02:47:30.503Z,23.90
2023-04-11T02:48:30.464Z,21.00
2023-04-11T02:49:30.491Z,19.60
2023-04-11T02:50:30.427Z,18.90
2023-04-11T02:51:30.433Z,22.80
2023-04-11T02:52:30.453Z,24.10
2023-04-11T02:53:30.409Z,18.60
2023-04-11T02:54:30.399Z,23.50
2023-04-11T02:55:30.411Z,25.70
2023-04-11T02:56:30.365Z,25.80
2023-04-11T02:57:30.367Z,19.90
2023-04-11T02:58:30.352Z,25.10
2023-04-11T02:59:30.337Z,23.50
2023-04-11T03:00:30.349Z,27.10
2023-04-11T03:01:30.337Z,23.60
2023-04-11T03:02:30.511Z,22.40
2023-04-11T03:03:30.320Z,23.80
2023-04-11T03:04:30.306Z,24.60
2023-04-11T03:05:30.281Z,25.20
2023-04-11T03:06:30.266Z,24.40
2023-04-11T03:07:30.248Z,25.70
2023-04-11T03:08:30.230Z,21.10
2023-04-11T03:09:30.221Z,25.40
2023-04-11T03:10:30.209Z,28.10
2023-04-11T03:11:30.226Z,28.30
2023-04-11T03:12:30.179Z,24.10
2023-04-11T03:13:30.178Z,26.20
2023-04-11T03:14:30.168Z,27.80
2023-04-11T03:15:30.166Z,27.80
2023-04-11T03:16:30.215Z,28.70
2023-04-11T03:17:30.182Z,30.10
2023-04-11T03:18:30.114Z,21.00
2023-04-11T03:19:30.142Z,31.00
2023-04-11T03:20:30.095Z,24.90
2023-04-11T03:21:30.086Z,26.30
2023-04-11T03:22:30.097Z,28.40
2023-04-11T03:23:30.070Z,26.60
2023-04-11T03:24:30.049Z,28.40
2023-04-11T03:25:30.038Z,29.40
2023-04-11T03:26:30.042Z,24.50
2023-04-11T03:27:30.026Z,21.00
2023-04-11T03:28:30.080Z,26.20
2023-04-11T03:29:29.995Z,28.20
2023-04-11T03:30:29.988Z,26.40
2023-04-11T03:31:29.995Z,25.90
2023-04-11T03:32:30.073Z,25.80
2023-04-11T03:33:29.955Z,23.10
2023-04-11T03:34:29.991Z,25.10
2023-04-11T03:35:29.949Z,29.60
2023-04-11T03:36:29.947Z,27.10
2023-04-11T03:37:29.909Z,24.50
2023-04-11T03:38:29.898Z,24.70
2023-04-11T03:39:29.892Z,25.50
2023-04-11T03:40:29.910Z,30.10
2023-04-11T03:41:29.867Z,26.90
2023-04-11T03:42:29.848Z,29.30
2023-04-11T03:43:29.855Z,27.60
2023-04-11T03:44:29.832Z,28.40
2023-04-11T03:45:29.825Z,31.20
2023-04-11T03:46:29.879Z,25.50
2023-04-11T03:47:29.840Z,27.80
2023-04-11T03:48:29.789Z,25.60
2023-04-11T03:49:29.769Z,25.70
2023-04-11T03:50:29.770Z,23.60
2023-04-11T03:51:29.762Z,26.60
2023-04-11T03:52:29.767Z,26.60
2023-04-11T03:53:29.726Z,28.90
2023-04-11T03:54:29.714Z,30.40
2023-04-11T03:55:29.719Z,27.10
2023-04-11T03:56:29.687Z,27.00
2023-04-11T03:57:29.717Z,27.40
2023-04-11T03:58:29.665Z,34.30
2023-04-11T03:59:29.671Z,23.50
2023-04-11T04:00:29.645Z,24.00
2023-04-11T04:01:29.644Z,27.30
2023-04-11T04:02:29.746Z,30.40
2023-04-11T04:03:29.919Z,26.60
2023-04-11T04:04:29.648Z,30.70
2023-04-11T04:05:29.594Z,24.90
2023-04-11T04:06:29.573Z,27.70
2023-04-11T04:07:29.575Z,31.10
2023-04-11T04:08:30.097Z,28.40
2023-04-11T04:09:29.541Z,27.70
2023-04-11T04:10:29.531Z,24.00
2023-04-11T04:11:29.529Z,27.10
2023-04-11T04:12:29.502Z,27.00
2023-04-11T04:13:29.498Z,27.60
2023-04-11T04:14:29.519Z,30.30
2023-04-11T04:15:29.476Z,26.50
2023-04-11T04:16:29.497Z,30.60
2023-04-11T04:17:29.505Z,28.60
2023-04-11T04:18:29.440Z,23.40
2023-04-11T04:19:29.463Z,24.60
2023-04-11T04:20:29.418Z,24.20
2023-04-11T04:21:29.404Z,28.70
2023-04-11T04:22:29.387Z,30.20
2023-04-11T04:23:29.387Z,24.00
2023-04-11T04:24:29.366Z,22.50
2023-04-11T04:25:29.371Z,27.20
2023-04-11T04:26:29.346Z,26.60
2023-04-11T04:27:29.350Z,26.00
2023-04-11T04:28:29.319Z,19.90
2023-04-11T04:29:29.329Z,28.50
2023-04-11T04:30:29.326Z,20.40
2023-04-11T04:31:29.334Z,19.80
2023-04-11T04:32:29.315Z,20.20
2023-04-11T04:33:29.268Z,16.40
2023-04-11T04:34:29.319Z,17.30
2023-04-11T04:35:29.275Z,15.40
2023-04-11T04:36:29.257Z,16.70
2023-04-11T04:37:29.242Z,21.70
2023-04-11T04:38:29.206Z,20.70
2023-04-11T04:39:29.201Z,24.40
2023-04-11T04:40:29.199Z,20.20
2023-04-11T04:41:29.206Z,24.10
2023-04-11T04:42:29.170Z,22.00
2023-04-11T04:43:29.155Z,21.70
2023-04-11T04:44:29.169Z,22.90
2023-04-11T04:45:29.183Z,20.70
2023-04-11T04:46:29.123Z,24.30
2023-04-11T04:47:29.155Z,20.30
2023-04-11T04:48:29.095Z,17.30
2023-04-11T04:49:29.099Z,19.70
2023-04-11T04:50:29.070Z,16.10
2023-04-11T04:51:29.074Z,17.80
2023-04-11T04:52:29.075Z,15.50
2023-04-11T04:53:29.035Z,20.20
2023-04-11T04:54:29.033Z,19.80
2023-04-11T04:55:29.027Z,20.00
2023-04-11T04:56:29.003Z,16.00
2023-04-11T04:57:29.004Z,16.80
2023-04-11T04:58:29.024Z,15.70
2023-04-11T04:59:28.997Z,11.80
2023-04-11T05:00:28.963Z,16.80
2023-04-11T05:01:28.981Z,17.30
2023-04-11T05:02:29.138Z,13.90
2023-04-11T05:03:29.114Z,11.50
2023-04-11T05:04:28.970Z,12.40
2023-04-11T05:05:28.942Z,11.20
2023-04-11T05:06:28.890Z,9.70
2023-04-11T05:07:28.910Z,8.80
2023-04-11T05:08:28.880Z,10.80
2023-04-11T05:09:28.861Z,10.60
2023-04-11T05:10:29.294Z,9.10
2023-04-11T05:11:28.850Z,6.70
2023-04-11T05:12:28.820Z,10.60
2023-04-11T05:13:28.870Z,8.70
2023-04-11T05:14:28.797Z,13.40
2023-04-11T05:15:28.795Z,10.70
2023-04-11T05:16:28.863Z,11.90
2023-04-11T05:17:28.824Z,9.40
2023-04-11T05:18:28.768Z,9.30
2023-04-11T05:19:28.793Z,13.30
2023-04-11T05:20:28.739Z,11.90
2023-04-11T05:21:28.761Z,12.50
2023-04-11T05:22:28.710Z,10.00
2023-04-11T05:23:28.740Z,12.20
2023-04-11T05:24:28.699Z,11.70
2023-04-11T05:25:28.692Z,13.50
2023-04-11T05:26:28.685Z,11.20
2023-04-11T05:27:28.683Z,11.20
2023-04-11T05:28:28.649Z,12.60
2023-04-11T05:29:28.719Z,12.40
2023-04-11T05:30:28.652Z,14.40
2023-04-11T05:31:28.633Z,11.80
2023-04-11T05:32:28.661Z,11.80
2023-04-11T05:33:28.597Z,8.10
2023-04-11T05:34:28.567Z,12.90
2023-04-11T05:35:28.598Z,12.70
2023-04-11T05:36:28.542Z,11.00
2023-04-11T05:37:28.541Z,13.30
2023-04-11T05:38:28.551Z,8.80
2023-04-11T05:39:28.518Z,12.40
2023-04-11T05:40:28.505Z,10.30
2023-04-11T05:41:28.498Z,10.80
2023-04-11T05:42:28.485Z,10.10
2023-04-11T05:43:29.691Z,12.10
2023-04-11T05:46:33.659Z,11.20
2023-04-11T05:47:34.540Z,10.80
2023-04-11T05:48:34.516Z,8.90
2023-04-11T05:49:34.524Z,11.80
2023-04-11T05:50:34.504Z,9.30
2023-04-11T05:51:34.478Z,8.90
2023-04-11T05:52:34.478Z,8.80
2023-04-11T05:53:34.465Z,11.00
2023-04-11T05:54:34.448Z,9.30
2023-04-11T05:55:34.452Z,10.70
2023-04-11T05:56:34.426Z,13.00
2023-04-11T05:57:34.421Z,9.40
2023-04-11T05:58:34.404Z,10.50
2023-04-11T05:59:34.384Z,11.70
2023-04-11T06:00:34.401Z,11.00
2023-04-11T06:01:34.393Z,8.40
2023-04-11T06:02:34.493Z,13.90
2023-04-11T06:03:34.469Z,9.90
2023-04-11T06:04:34.615Z,14.00
2023-04-11T06:05:34.316Z,12.90
2023-04-11T06:06:34.337Z,11.70
2023-04-11T06:07:34.296Z,12.40
2023-04-11T06:08:34.308Z,11.50
2023-04-11T06:09:34.342Z,11.90
2023-04-11T06:10:34.283Z,12.30
2023-04-11T06:11:34.278Z,9.80
2023-04-11T06:12:34.250Z,11.20
2023-04-11T06:13:34.241Z,9.50
2023-04-11T06:14:34.228Z,10.50
2023-04-11T06:15:34.292Z,13.30
2023-04-11T06:16:34.230Z,11.70
2023-04-11T06:17:34.221Z,15.30
2023-04-11T06:18:34.191Z,15.30
2023-04-11T06:19:34.180Z,13.20
2023-04-11T06:20:34.168Z,17.50
2023-04-11T06:21:34.153Z,16.60
2023-04-11T06:22:34.163Z,15.40
2023-04-11T06:23:34.120Z,16.00
2023-04-11T06:24:34.122Z,16.40
2023-04-11T06:25:34.099Z,19.90
2023-04-11T06:26:34.093Z,22.40
2023-04-11T06:27:34.087Z,17.30
2023-04-11T06:28:34.098Z,16.80
2023-04-11T06:29:34.058Z,22.10
2023-04-11T06:30:34.042Z,17.00
2023-04-11T06:31:34.189Z,17.10
2023-04-11T06:32:34.076Z,25.60
2023-04-11T06:33:34.032Z,17.30
2023-04-11T06:34:34.052Z,15.80
2023-04-11T06:35:34.048Z,19.80
2023-04-11T06:36:34.026Z,19.90
2023-04-11T06:37:33.974Z,18.30
2023-04-11T06:38:33.981Z,17.20
2023-04-11T06:39:34.009Z,18.00
2023-04-11T06:40:33.972Z,17.70
2023-04-11T06:41:33.926Z,18.80
2023-04-11T06:42:33.958Z,18.10
2023-04-11T06:43:33.936Z,16.10
2023-04-11T06:44:33.926Z,16.10
2023-04-11T06:45:33.906Z,15.70
2023-04-11T06:46:33.875Z,18.80
2023-04-11T06:47:33.908Z,19.10
2023-04-11T06:48:33.860Z,16.60
2023-04-11T06:49:33.880Z,19.10
2023-04-11T06:50:33.827Z,17.70
2023-04-11T06:51:33.828Z,17.10
2023-04-11T06:52:33.830Z,10.40
2023-04-11T06:53:33.794Z,9.80
2023-04-11T06:54:33.791Z,7.60
2023-04-11T06:55:33.779Z,8.30
2023-04-11T06:56:33.796Z,10.30
2023-04-11T06:57:33.742Z,8.70
2023-04-11T06:58:33.745Z,9.80
2023-04-11T06:59:33.729Z,13.70
2023-04-11T07:00:33.720Z,12.30
2023-04-11T07:01:33.749Z,9.10
2023-04-11T07:02:33.958Z,12.20
2023-04-11T07:03:33.789Z,15.30
2023-04-11T07:04:33.807Z,12.70
2023-04-11T07:05:33.656Z,16.10
2023-04-11T07:06:33.700Z,13.80
2023-04-11T07:07:33.637Z,14.50
2023-04-11T07:08:33.662Z,16.40
2023-04-11T07:09:33.616Z,14.60
2023-04-11T07:10:33.646Z,14.90
2023-04-11T07:11:33.586Z,15.90
2023-04-11T07:12:33.588Z,17.80
2023-04-11T07:13:33.567Z,15.90
2023-04-11T07:14:33.585Z,14.80
2023-04-11T07:15:33.550Z,13.60
2023-04-11T07:16:33.593Z,16.50
2023-04-11T07:17:33.636Z,15.40
2023-04-11T07:18:33.540Z,13.00
2023-04-11T07:19:33.552Z,11.40
2023-04-11T07:20:33.514Z,13.80
2023-04-11T07:21:33.509Z,14.40
2023-04-11T07:22:33.466Z,14.00
2023-04-11T07:23:33.470Z,19.30
2023-04-11T07:24:33.445Z,15.20
2023-04-11T07:25:33.465Z,10.20
2023-04-11T07:26:33.425Z,10.30
2023-04-11T07:27:33.418Z,12.70
2023-04-11T07:28:33.396Z,13.80
2023-04-11T07:29:33.399Z,12.30
2023-04-11T07:30:33.443Z,13.80
2023-04-11T07:31:33.403Z,10.20
2023-04-11T07:32:33.415Z,11.00
2023-04-11T07:33:33.336Z,13.30
2023-04-11T07:34:33.356Z,10.20
2023-04-11T07:35:33.364Z,8.80
2023-04-11T07:36:33.376Z,9.90
2023-04-11T07:37:33.293Z,9.30
2023-04-11T07:38:33.318Z,8.70
2023-04-11T07:39:33.285Z,8.90
2023-04-11T07:40:33.262Z,11.60
2023-04-11T07:41:33.292Z,10.90
2023-04-11T07:42:33.258Z,12.70
2023-04-11T07:43:33.245Z,12.20
2023-04-11T07:44:33.224Z,9.40
2023-04-11T07:45:33.281Z,6.70
2023-04-11T07:46:33.203Z,7.10
2023-04-11T07:47:33.277Z,7.90
2023-04-11T07:48:33.181Z,9.50
2023-04-11T07:49:33.170Z,10.70
2023-04-11T07:50:33.154Z,6.10
2023-04-11T07:51:33.148Z,8.20
2023-04-11T07:52:33.147Z,7.70
2023-04-11T07:53:33.186Z,5.30
2023-04-11T07:54:33.126Z,8.50
2023-04-11T07:55:33.101Z,10.30
2023-04-11T07:56:33.099Z,10.80
2023-04-11T07:57:33.072Z,10.00
2023-04-11T07:58:33.073Z,10.40
2023-04-11T07:59:33.077Z,9.90
2023-04-11T08:00:33.055Z,8.50
2023-04-11T08:01:33.047Z,8.40
2023-04-11T08:02:33.424Z,6.90
2023-04-11T08:03:33.182Z,8.10
2023-04-11T08:04:33.156Z,12.40
2023-04-11T08:05:33.036Z,10.80
2023-04-11T08:06:32.980Z,6.50
2023-04-11T08:07:32.963Z,8.20
2023-04-11T08:08:32.954Z,8.00
2023-04-11T08:09:32.943Z,9.30
2023-04-11T08:10:32.937Z,10.70
2023-04-11T08:11:32.941Z,8.80
2023-04-11T08:12:32.918Z,8.20
2023-04-11T08:13:32.889Z,9.60
2023-04-11T08:14:32.915Z,9.00
2023-04-11T08:15:32.887Z,8.60
2023-04-11T08:16:32.923Z,8.20
2023-04-11T08:17:33.121Z,7.70
2023-04-11T08:18:32.842Z,9.30
2023-04-11T08:19:32.829Z,8.50
2023-04-11T08:20:32.817Z,8.70
2023-04-11T08:21:32.812Z,7.60
2023-04-11T08:22:32.851Z,9.60
2023-04-11T08:23:32.792Z,8.90
2023-04-11T08:24:32.784Z,9.10
2023-04-11T08:25:32.760Z,7.50
2023-04-11T08:26:32.752Z,9.80
2023-04-11T08:27:32.747Z,8.20
2023-04-11T08:28:32.761Z,8.70
2023-04-11T08:29:32.744Z,6.40
2023-04-11T08:30:32.731Z,7.80
2023-04-11T08:31:32.696Z,6.70
2023-04-11T08:32:32.730Z,6.70
2023-04-11T08:33:32.667Z,10.00
2023-04-11T08:34:32.715Z,10.50
2023-04-11T08:35:32.680Z,7.60
2023-04-11T08:36:32.659Z,9.40
2023-04-11T08:37:32.643Z,9.50
2023-04-11T08:38:32.633Z,7.40
2023-04-11T08:39:32.606Z,11.20
2023-04-11T08:40:32.648Z,9.50
2023-04-11T08:41:32.590Z,7.20
2023-04-11T08:42:32.574Z,9.40
2023-04-11T08:43:32.560Z,6.70
2023-04-11T08:44:32.554Z,10.10
2023-04-11T08:45:32.544Z,10.80
2023-04-11T08:46:32.584Z,10.30
2023-04-11T08:47:32.543Z,8.20
2023-04-11T08:48:32.572Z,9.50
2023-04-11T08:49:32.494Z,9.40
2023-04-11T08:50:32.492Z,8.60
2023-04-11T08:51:32.471Z,7.70
2023-04-11T08:52:32.537Z,10.10
2023-04-11T08:53:32.451Z,8.00
2023-04-11T08:54:32.453Z,6.40
2023-04-11T08:55:32.428Z,6.80
2023-04-11T08:56:32.416Z,11.60
2023-04-11T08:57:32.427Z,9.80
2023-04-11T08:58:32.429Z,9.90
2023-04-11T08:59:32.382Z,9.80
2023-04-11T09:00:32.634Z,6.80
2023-04-11T09:01:32.702Z,9.30
2023-04-11T09:02:32.402Z,7.70
2023-04-11T09:03:32.395Z,8.80
2023-04-11T09:04:32.316Z,10.00
2023-04-11T09:05:32.309Z,7.20
2023-04-11T09:06:32.304Z,6.30
2023-04-11T09:07:32.304Z,10.30
2023-04-11T09:08:32.281Z,8.60
2023-04-11T09:09:32.284Z,11.50
2023-04-11T09:10:32.263Z,7.50
2023-04-11T09:11:32.336Z,9.20
2023-04-11T09:12:32.239Z,8.80
2023-04-11T09:13:32.224Z,7.30
2023-04-11T09:14:32.619Z,7.40
2023-04-11T09:15:32.228Z,7.90
2023-04-11T09:16:32.201Z,7.40
2023-04-11T09:17:32.214Z,9.10
2023-04-11T09:18:32.173Z,9.20
2023-04-11T09:19:32.159Z,7.70
2023-04-11T09:20:32.168Z,7.90
2023-04-11T09:21:32.496Z,8.30
2023-04-11T09:22:32.120Z,6.80
2023-04-11T09:23:32.109Z,7.80
2023-04-11T09:24:34.006Z,10.50
2023-04-11T09:25:32.117Z,8.60
2023-04-11T09:26:32.077Z,6.60
2023-04-11T09:27:32.067Z,9.70
2023-04-11T09:28:32.056Z,8.40
2023-04-11T09:29:32.050Z,8.60
2023-04-11T09:30:32.051Z,11.30
2023-04-11T09:31:32.060Z,11.10
2023-04-11T09:32:34.641Z,10.50
2023-04-11T09:33:32.012Z,7.90
2023-04-11T09:34:31.988Z,11.70
2023-04-11T09:35:32.049Z,11.20
2023-04-11T09:36:31.977Z,7.70
2023-04-11T09:37:31.954Z,9.10
2023-04-11T09:38:31.973Z,8.00
2023-04-11T09:39:31.936Z,9.50
2023-04-11T09:40:31.972Z,8.70
2023-04-11T09:41:31.912Z,11.10
2023-04-11T09:42:31.899Z,9.80
2023-04-11T09:43:31.899Z,8.90
2023-04-11T09:44:31.875Z,8.30
2023-04-11T09:45:38.117Z,8.10
2023-04-11T09:46:31.887Z,15.60
2023-04-11T09:47:31.895Z,8.70
2023-04-11T09:48:45.511Z,7.70
2023-04-11T09:49:31.854Z,9.20
2023-04-11T09:50:31.824Z,7.40
2023-04-11T09:51:35.959Z,9.50
2023-04-11T09:52:31.795Z,10.80
2023-04-11T09:53:31.773Z,8.80
2023-04-11T09:54:31.757Z,8.90
2023-04-11T09:55:31.780Z,7.50
2023-04-11T09:56:31.785Z,7.60
2023-04-11T09:57:31.734Z,7.80
2023-04-11T09:58:31.718Z,11.20
2023-04-11T09:59:31.709Z,10.40
2023-04-11T10:00:31.723Z,8.40
2023-04-11T10:01:31.707Z,10.10
2023-04-11T10:02:31.803Z,8.80
2023-04-11T10:03:31.677Z,6.10
2023-04-11T10:04:31.688Z,9.10
2023-04-11T10:05:31.678Z,11.40
2023-04-11T10:06:31.932Z,8.60
2023-04-11T10:07:31.625Z,9.40
2023-04-11T10:08:31.601Z,10.90
2023-04-11T10:09:31.607Z,8.20
2023-04-11T10:10:31.653Z,9.60
2023-04-11T10:11:31.582Z,8.80
2023-04-11T10:12:31.582Z,10.50
2023-04-11T10:13:31.549Z,11.00
2023-04-11T10:14:31.552Z,7.00
2023-04-11T10:15:31.552Z,10.10
2023-04-11T10:16:31.542Z,9.10
2023-04-11T10:17:31.534Z,7.50
2023-04-11T10:18:31.496Z,9.30
2023-04-11T10:19:31.495Z,10.40
2023-04-11T10:20:31.500Z,10.90
2023-04-11T10:21:31.460Z,11.10
2023-04-11T10:22:31.444Z,8.90
2023-04-11T10:23:31.446Z,11.20
2023-04-11T10:24:31.429Z,9.80
2023-04-11T10:25:31.453Z,9.90
2023-04-11T10:26:31.411Z,8.50
2023-04-11T10:27:31.399Z,9.90
2023-04-11T10:28:31.379Z,6.60
2023-04-11T10:29:31.395Z,7.60
2023-04-11T10:30:31.381Z,6.90
2023-04-11T10:31:31.457Z,10.00
2023-04-11T10:32:31.382Z,7.00
2023-04-11T10:33:31.348Z,9.00
2023-04-11T10:34:31.323Z,9.00
2023-04-11T10:35:31.357Z,7.40
2023-04-11T10:36:31.294Z,7.50
2023-04-11T10:37:31.292Z,6.40
2023-04-11T10:38:31.274Z,8.60
2023-04-11T10:39:31.270Z,8.50
2023-04-11T10:40:31.281Z,6.60
2023-04-11T10:41:31.250Z,6.00
2023-04-11T10:42:31.227Z,6.70
2023-04-11T10:43:31.248Z,9.40
2023-04-11T10:44:31.205Z,9.90
2023-04-11T10:45:31.221Z,8.40
2023-04-11T10:46:31.231Z,9.10
2023-04-11T10:47:31.220Z,11.20
2023-04-11T10:48:31.158Z,9.80
2023-04-11T10:49:31.154Z,11.10
2023-04-11T10:50:31.158Z,9.40
2023-04-11T10:51:31.134Z,9.40
2023-04-11T10:52:31.113Z,9.20
2023-04-11T10:53:31.110Z,12.20
2023-04-11T10:54:31.109Z,9.30
2023-04-11T10:55:31.103Z,8.70
2023-04-11T10:56:31.073Z,10.10
2023-04-11T10:57:31.059Z,9.50
2023-04-11T10:58:31.053Z,10.70
2023-04-11T10:59:31.066Z,8.90
2023-04-11T11:00:32.649Z,9.80
2023-04-11T11:01:37.161Z,7.50
2023-04-11T11:02:31.130Z,10.70
2023-04-11T11:03:31.133Z,8.20
2023-04-11T11:04:31.023Z,7.20
2023-04-11T11:05:30.985Z,10.90
2023-04-11T11:06:30.953Z,7.80
2023-04-11T11:07:30.951Z,6.30
2023-04-11T11:08:30.955Z,9.80
2023-04-11T11:09:30.927Z,9.00
2023-04-11T11:10:30.923Z,8.10
2023-04-11T11:11:30.900Z,9.00
2023-04-11T11:12:30.880Z,7.60
2023-04-11T11:13:30.882Z,7.60
2023-04-11T11:14:30.859Z,7.90
2023-04-11T11:15:30.874Z,6.80
2023-04-11T11:16:30.854Z,9.40
2023-04-11T11:17:30.878Z,7.80
2023-04-11T11:18:30.819Z,7.90
2023-04-11T11:19:30.811Z,7.40
2023-04-11T11:20:30.810Z,6.60
2023-04-11T11:21:30.784Z,8.80
2023-04-11T11:22:30.781Z,8.90
2023-04-11T11:23:30.765Z,8.80
2023-04-11T11:24:30.761Z,11.20
2023-04-11T11:25:30.763Z,8.60
2023-04-11T11:26:30.728Z,6.70
2023-04-11T11:27:30.717Z,7.90
2023-04-11T11:28:30.707Z,6.80
2023-04-11T11:29:30.693Z,10.40
2023-04-11T11:30:30.714Z,8.50
2023-04-11T11:31:30.698Z,10.70
2023-04-11T11:32:30.677Z,7.00
2023-04-11T11:33:30.667Z,9.50
2023-04-11T11:34:30.640Z,7.70
2023-04-11T11:35:30.660Z,6.10
2023-04-11T11:36:30.623Z,9.30
2023-04-11T11:37:30.609Z,6.10
2023-04-11T11:38:30.613Z,7.50
2023-04-11T11:39:30.582Z,6.80
2023-04-11T11:40:30.593Z,6.80
2023-04-11T11:41:30.558Z,7.60
2023-04-11T11:42:30.561Z,6.80
2023-04-11T11:43:30.534Z,6.20
2023-04-11T11:44:30.525Z,8.20
2023-04-11T11:45:30.548Z,8.80
2023-04-11T11:46:30.551Z,8.50
2023-04-11T11:47:30.522Z,8.30
2023-04-11T11:48:30.471Z,7.40
2023-04-11T11:49:30.467Z,7.80
2023-04-11T11:50:30.474Z,7.90
2023-04-11T11:51:30.453Z,11.00
2023-04-11T11:52:30.433Z,8.40
2023-04-11T11:53:30.428Z,9.30
2023-04-11T11:54:30.411Z,8.20
2023-04-11T11:55:30.421Z,8.60
2023-04-11T11:56:30.395Z,6.30
2023-04-11T11:57:30.377Z,7.80
2023-04-11T11:58:30.380Z,6.70
2023-04-11T11:59:30.358Z,7.10
2023-04-11T12:00:30.372Z,6.90
2023-04-11T12:01:30.338Z,7.60
2023-04-11T12:02:30.500Z,7.90
2023-04-11T12:03:30.445Z,5.90
2023-04-11T12:04:30.539Z,7.30
2023-04-11T12:05:30.914Z,5.50
2023-04-11T12:06:30.276Z,6.10
2023-04-11T12:07:30.269Z,7.60
2023-04-11T12:08:30.265Z,5.80
2023-04-11T12:09:30.243Z,5.40
2023-04-11T12:10:30.255Z,7.80
2023-04-11T12:11:30.228Z,7.30
2023-04-11T12:12:30.237Z,6.70
2023-04-11T12:13:30.199Z,10.10
2023-04-11T12:14:30.185Z,5.50
2023-04-11T12:15:30.201Z,7.50
2023-04-11T12:16:30.285Z,6.50
2023-04-11T12:17:30.202Z,6.60
2023-04-11T12:18:30.148Z,7.00
2023-04-11T12:19:30.138Z,9.40
2023-04-11T12:20:30.149Z,9.30
2023-04-11T12:21:30.114Z,9.00
2023-04-11T12:22:30.110Z,10.30
2023-04-11T12:23:30.110Z,7.70
2023-04-11T12:24:30.076Z,7.10
2023-04-11T12:25:30.115Z,8.00
2023-04-11T12:26:30.061Z,7.40
2023-04-11T12:27:30.051Z,7.40
2023-04-11T12:28:30.034Z,8.00
2023-04-11T12:29:30.037Z,7.90
2023-04-11T12:30:30.267Z,10.20
2023-04-11T12:31:30.093Z,6.60
2023-04-11T12:32:30.003Z,8.40
2023-04-11T12:33:29.982Z,9.90
2023-04-11T12:34:29.964Z,5.90
2023-04-11T12:35:29.975Z,5.70
2023-04-11T12:36:30.071Z,10.80
2023-04-11T12:37:29.940Z,7.70
2023-04-11T12:38:29.920Z,6.50
2023-04-11T12:39:29.913Z,5.60
2023-04-11T12:40:30.002Z,6.10
2023-04-11T12:41:32.617Z,5.90
2023-04-11T12:42:29.874Z,7.20
2023-04-11T12:43:29.869Z,7.10
2023-04-11T12:44:29.861Z,6.90
2023-04-11T12:45:29.896Z,5.10
2023-04-11T12:46:29.850Z,7.00
2023-04-11T12:47:29.910Z,6.20
2023-04-11T12:48:29.841Z,7.60
2023-04-11T12:49:29.797Z,5.60
2023-04-11T12:50:29.800Z,5.80
2023-04-11T12:51:29.782Z,4.90
2023-04-11T12:52:29.754Z,4.70
2023-04-11T12:53:29.755Z,7.10
2023-04-11T12:54:29.735Z,5.60
2023-04-11T12:55:30.060Z,6.10
2023-04-11T12:56:29.710Z,8.00
2023-04-11T12:57:29.704Z,4.30
2023-04-11T12:58:29.710Z,6.00
2023-04-11T12:59:30.727Z,4.90
2023-04-11T13:00:29.698Z,5.90
2023-04-11T13:01:29.685Z,5.40
2023-04-11T13:02:35.405Z,5.80
2023-04-11T13:03:29.858Z,4.80
2023-04-11T13:04:29.688Z,5.90
2023-04-11T13:05:29.654Z,5.50
2023-04-11T13:06:29.605Z,6.10